Time;durP1;ratioP1;P1;durP2;ratioP2;P2;SDS_P1;SDS_P2;PMS_P1;PMS_P2;Temp;Humidity;BMP_temperature;BMP_pressure;BME280_temperature;BME280_humidity;BME280_pressure;Samples;Min_cycle;Max_cycle;Signal;HPM_P1;HPM_P2
2023/12/15 00:04:21;;;;;;;1.40;1.30;;;;;;;3.66;79.59;102098.19;15764461;28;19970;-77
2023/12/15 00:11:55;;;;;;;;;;;;;;;3.58;80.44;102107.63;15751363;28;20466;-76
2023/12/15 00:19:29;;;;;;;0.45;0.45;;;;;;;3.45;80.77;102096.41;15738268;28;19963;-77
2023/12/15 00:27:04;;;;;;;0.10;0.10;;;;;;;3.81;80.39;102120.75;15744199;28;20495;-76
2023/12/15 00:34:37;;;;;;;0.40;0.40;;;;;;;3.65;80.09;102118.59;15747974;28;20092;-76
2023/12/15 00:42:12;;;;;;;;;;;;;;;3.89;78.89;102141.34;15749328;28;20048;-77
2023/12/15 00:49:46;;;;;;;0.00;0.00;;;;;;;4.09;78.03;102143.13;15764711;28;19950;-76
2023/12/15 00:57:20;;;;;;;0.08;0.08;;;;;;;3.84;78.58;102155.03;15748000;28;20055;-77
2023/12/15 01:04:53;;;;;;;0.63;0.63;;;;;;;4.02;78.03;102158.75;15769627;28;20048;-76
2023/12/15 01:12:29;;;;;;;0.22;0.22;;;;;;;4.02;77.89;102174.69;15745628;28;20036;-76
2023/12/15 01:20:03;;;;;;;0.08;0.08;;;;;;;3.33;79.63;102199.13;15744816;28;20037;-77
2023/12/15 01:27:38;;;;;;;0.80;0.80;;;;;;;3.79;79.25;102187.28;15742118;28;20469;-76
2023/12/15 01:35:11;;;;;;;0.15;0.15;;;;;;;4.01;78.13;102196.06;15747043;28;20112;-76
2023/12/15 01:42:47;;;;;;;;;;;;;;;3.07;81.46;102211.00;15753215;28;20040;-75
2023/12/15 01:50:24;;;;;;;0.80;0.80;;;;;;;3.09;82.13;102226.81;15740934;28;20007;-76
2023/12/15 01:57:59;;;;;;;;;;;;;;;3.14;81.67;102233.44;15757503;28;20824;-76
2023/12/15 02:05:32;;;;;;;0.43;0.43;;;;;;;3.61;80.01;102246.41;15763361;28;19976;-76
2023/12/15 02:13:08;;;;;;;0.00;0.00;;;;;;;3.38;81.11;102235.88;15754256;28;20049;-77
2023/12/15 02:20:41;;;;;;;0.47;0.47;;;;;;;3.49;78.92;102243.78;15726560;28;20052;-76
2023/12/15 02:28:18;;;;;;;0.52;0.52;;;;;;;2.77;79.54;102188.69;15759082;28;20111;-76
2023/12/15 02:35:51;;;;;;;0.00;0.00;;;;;;;3.34;79.62;102250.38;15754878;28;20312;-76
2023/12/15 02:43:26;;;;;;;0.00;0.00;;;;;;;2.14;83.49;102279.38;15747291;28;20048;-76
2023/12/15 02:51:04;;;;;;;0.45;0.45;;;;;;;2.63;83.21;102281.72;15741233;28;20106;-77
2023/12/15 02:58:39;;;;;;;0.10;0.10;;;;;;;2.39;83.54;102294.25;15733644;28;20098;-76
2023/12/15 03:06:13;;;;;;;0.40;0.40;;;;;;;2.74;81.08;102272.91;15738238;28;20053;-76
2023/12/15 03:13:50;;;;;;;0.50;0.50;;;;;;;3.06;80.08;102292.41;15739105;28;20041;-77
2023/12/15 03:21:24;;;;;;;0.65;0.65;;;;;;;2.29;80.13;102313.50;15751795;28;20036;-76
2023/12/15 03:28:58;;;;;;;;;;;;;;;2.47;80.74;102318.31;15751279;28;20056;-77
2023/12/15 03:36:38;;;;;;;0.00;0.00;;;;;;;2.12;82.87;102321.88;15743759;28;19920;-76
2023/12/15 03:44:14;;;;;;;0.15;0.15;;;;;;;2.13;82.75;102315.63;15734034;28;20048;-77
2023/12/15 03:51:48;;;;;;;0.10;0.10;;;;;;;2.30;83.07;102325.78;15704956;22;20049;-47
2023/12/15 03:59:23;;;;;;;;;;;;;;;2.54;83.34;102331.00;15656140;28;20406;-44
2023/12/15 04:06:57;;;;;;;4.80;2.72;;;;;;;2.12;83.49;102336.94;15728968;22;20289;-48
2023/12/15 04:14:34;;;;;;;0.10;0.10;;;;;;;1.62;85.54;102336.22;15733941;28;20512;-50
2023/12/15 04:22:09;;;;;;;0.10;0.10;;;;;;;2.03;85.16;102343.75;15731980;28;20048;-47
2023/12/15 04:29:44;;;;;;;0.10;0.10;;;;;;;2.07;85.28;102360.28;15731003;28;20045;-50
2023/12/15 04:37:18;;;;;;;0.55;0.55;;;;;;;2.23;84.85;102366.09;15729438;28;20080;-51
2023/12/15 04:44:56;;;;;;;0.10;0.10;;;;;;;2.21;84.89;102365.38;15728343;28;20043;-48
2023/12/15 04:52:29;;;;;;;0.00;0.00;;;;;;;1.74;86.64;102367.09;15729503;28;20041;-49
2023/12/15 05:00:05;;;;;;;1.45;0.40;;;;;;;1.91;87.19;102368.50;15724972;28;20481;-50
2023/12/15 05:07:38;;;;;;;0.20;0.20;;;;;;;2.17;85.27;102362.09;15726666;28;20040;-51
2023/12/15 05:15:13;;;;;;;0.20;0.20;;;;;;;1.82;86.90;102385.06;15734601;28;20060;-48
2023/12/15 05:22:46;;;;;;;0.22;0.22;;;;;;;2.08;86.04;102385.78;15742001;28;20067;-48
2023/12/15 05:30:21;;;;;;;3.30;1.75;;;;;;;2.23;85.57;102405.81;15743664;28;20119;-48
2023/12/15 05:37:54;;;;;;;0.52;0.52;;;;;;;1.78;85.51;102411.78;15736788;28;20532;-49
2023/12/15 05:45:29;;;;;;;0.30;0.30;;;;;;;2.25;83.49;102414.53;15741373;28;20131;-50
2023/12/15 05:53:05;;;;;;;0.20;0.20;;;;;;;2.33;81.79;102412.13;15741575;28;20070;-51
2023/12/15 06:00:40;;;;;;;;;;;;;;;2.26;81.63;102417.03;15738401;28;20036;-48
2023/12/15 06:08:13;;;;;;;0.73;0.73;;;;;;;2.10;81.57;102419.16;15740924;28;19924;-47
2023/12/15 06:15:48;;;;;;;0.28;0.28;;;;;;;1.62;82.57;102457.97;15737381;28;20044;-49
2023/12/15 06:23:22;;;;;;;0.00;0.00;;;;;;;1.64;82.61;102451.63;15736625;28;20044;-47
2023/12/15 06:30:59;;;;;;;0.20;0.20;;;;;;;1.05;83.31;102466.41;15719409;28;20353;-50
2023/12/15 06:38:33;;;;;;;1.65;1.10;;;;;;;1.37;83.49;102475.59;15737223;28;20048;-48
2023/12/15 06:46:08;;;;;;;0.57;0.57;;;;;;;1.23;82.36;102495.06;15736341;28;20028;-48
2023/12/15 06:53:41;;;;;;;1.45;1.10;;;;;;;1.21;83.35;102504.06;15737605;28;20366;-50
2023/12/15 07:01:18;;;;;;;0.30;0.30;;;;;;;1.35;82.80;102506.59;15737387;28;20114;-50
2023/12/15 07:08:54;;;;;;;0.08;0.08;;;;;;;1.47;83.28;102532.19;15719801;28;20064;-48
2023/12/15 07:16:29;;;;;;;0.05;0.05;;;;;;;1.40;83.71;102532.72;15736228;28;20053;-48
2023/12/15 07:24:02;;;;;;;0.00;0.00;;;;;;;1.44;82.26;102518.34;15736423;28;20131;-50
2023/12/15 07:31:37;;;;;;;0.10;0.10;;;;;;;1.07;83.75;102551.75;15736111;28;20086;-47
2023/12/15 07:39:11;;;;;;;0.40;0.40;;;;;;;1.69;82.37;102543.94;15733305;28;20442;-51
2023/12/15 07:46:45;;;;;;;;;;;;;;;1.64;81.67;102540.78;15732876;28;20048;-49
2023/12/15 07:54:19;;;;;;;0.28;0.28;;;;;;;1.12;83.98;102544.34;15733031;28;19920;-47
2023/12/15 08:01:55;;;;;;;0.20;0.20;;;;;;;1.54;83.77;102559.09;15732353;28;20036;-49
2023/12/15 08:09:28;;;;;;;1.10;1.10;;;;;;;1.46;82.92;102570.22;15732967;28;20044;-47
2023/12/15 08:17:04;;;;;;;1.25;0.90;;;;;;;1.71;83.12;102561.41;15730988;28;20051;-51
2023/12/15 08:24:38;;;;;;;0.10;0.10;;;;;;;1.96;82.39;102567.63;15732002;28;20131;-52
2023/12/15 08:32:14;;;;;;;0.20;0.20;;;;;;;2.08;81.98;102563.25;15732485;28;20067;-50
2023/12/15 08:39:47;;;;;;;0.73;0.45;;;;;;;2.51;80.05;102550.38;15728655;28;20047;-51
2023/12/15 08:47:22;;;;;;;;;;;;;;;2.68;80.18;102562.38;15732886;28;20044;-52
2023/12/15 08:54:56;;;;;;;0.40;0.40;;;;;;;2.26;82.60;102570.72;15745201;28;20468;-51
2023/12/15 09:02:31;;;;;;;0.40;0.40;;;;;;;2.51;81.98;102590.97;15744072;28;20128;-51
2023/12/15 09:10:08;;;;;;;0.63;0.57;;;;;;;2.66;82.26;102614.66;15747919;28;20509;-51
2023/12/15 09:17:45;;;;;;;2.30;0.77;;;;;;;2.89;81.19;102631.53;15742585;28;20056;-50
2023/12/15 09:25:18;;;;;;;0.22;0.22;;;;;;;2.84;82.43;102631.03;15742764;28;20048;-52
2023/12/15 09:32:55;;;;;;;1.55;0.63;;;;;;;2.92;81.66;102631.31;15741029;28;20505;-50
2023/12/15 09:40:30;;;;;;;2.13;0.85;;;;;;;3.05;81.42;102650.66;15742901;28;20132;-48
2023/12/15 09:48:07;;;;;;;0.38;0.38;;;;;;;2.99;81.18;102649.31;15744152;28;20080;-47
2023/12/15 09:55:42;;;;;;;0.65;0.65;;;;;;;3.29;80.97;102645.31;15741311;28;20037;-47
2023/12/15 10:03:17;;;;;;;0.38;0.38;;;;;;;2.77;83.75;102665.13;15742437;28;20064;-51
2023/12/15 10:10:51;;;;;;;0.13;0.13;;;;;;;3.44;82.48;102664.56;15747560;28;20092;-51
2023/12/15 10:18:26;;;;;;;;;;;;;;;3.45;81.57;102656.50;15743691;28;20044;-49
2023/12/15 10:26:01;;;;;;;0.13;0.13;;;;;;;3.57;82.14;102671.47;15739752;28;19920;-50
2023/12/15 10:33:37;;;;;;;5.68;2.28;;;;;;;3.89;80.99;102670.81;15743944;28;20052;-52
2023/12/15 10:41:12;;;;;;;0.05;0.05;;;;;;;3.68;80.74;102670.63;15742269;28;20062;-49
2023/12/15 10:48:49;;;;;;;0.35;0.35;;;;;;;3.54;82.01;102677.03;15739789;28;20505;-51
2023/12/15 10:56:22;;;;;;;1.35;0.80;;;;;;;3.65;80.90;102659.44;15740811;28;20098;-52
2023/12/15 11:03:57;;;;;;;4.28;1.08;;;;;;;3.89;80.20;102672.63;15740939;28;20118;-46
2023/12/15 11:11:32;;;;;;;1.17;1.15;;;;;;;3.75;81.02;102677.19;15737980;28;20482;-48
2023/12/15 11:19:07;;;;;;;0.60;0.60;;;;;;;3.71;82.62;102673.06;15732665;28;20425;-48
2023/12/15 11:26:46;;;;;;;0.55;0.55;;;;;;;3.60;84.16;102669.56;15737922;28;20040;-47
2023/12/15 11:34:39;;;;;;;0.55;0.55;;;;;;;3.99;83.32;102671.78;15736694;28;20151;-46
2023/12/15 11:42:13;;;;;;;0.85;0.85;;;;;;;3.96;82.78;102671.16;15734908;28;20132;-50
2023/12/15 11:49:51;;;;;;;2.85;2.65;;;;;;;3.54;84.41;102654.91;15735240;28;20068;-47
2023/12/15 11:57:26;;;;;;;0.17;0.17;;;;;;;4.17;83.36;102661.53;15734929;28;20056;-46
2023/12/15 12:05:00;;;;;;;;;;;;;;;4.30;81.95;102648.97;15734586;28;20042;-46
2023/12/15 12:12:34;;;;;;;1.35;1.10;;;;;;;4.32;83.08;102648.81;15737962;28;19920;-47
2023/12/15 12:20:11;;;;;;;2.10;1.45;;;;;;;4.23;83.51;102650.41;15733172;28;20493;-47
2023/12/15 12:27:45;;;;;;;1.08;1.08;;;;;;;4.24;83.07;102669.84;15728030;28;20047;-47
2023/12/15 12:35:21;;;;;;;0.90;0.90;;;;;;;4.40;83.68;102686.28;15734426;28;20074;-49
2023/12/15 12:42:57;;;;;;;2.78;0.85;;;;;;;4.19;84.47;102696.78;15734952;28;20044;-47
2023/12/15 12:50:32;;;;;;;0.50;0.50;;;;;;;4.63;83.90;102691.59;15733429;28;20047;-51
2023/12/15 12:58:05;;;;;;;0.35;0.35;;;;;;;4.30;84.65;102691.50;15730958;28;20049;-45
2023/12/15 13:05:40;;;;;;;;;;;;;;;4.02;85.33;102703.44;15732956;28;20044;-50
2023/12/15 13:13:13;;;;;;;1.15;1.15;;;;;;;4.48;84.40;102698.97;15735814;28;19928;-47
2023/12/15 13:20:49;;;;;;;1.55;1.00;;;;;;;4.74;84.88;102712.84;15730692;28;20036;-49
2023/12/15 13:28:26;;;;;;;2.95;0.98;;;;;;;4.55;85.35;102716.97;15732949;28;20771;-54
2023/12/15 13:36:01;;;;;;;0.30;0.30;;;;;;;4.31;86.31;102717.09;15734944;28;20044;-46
2023/12/15 13:43:37;;;;;;;0.40;0.40;;;;;;;4.90;85.20;102723.09;15741955;28;20064;-49
2023/12/15 13:51:12;;;;;;;0.00;0.00;;;;;;;4.58;86.65;102726.53;15742336;28;20090;-52
2023/12/15 13:58:48;;;;;;;0.77;0.77;;;;;;;4.84;86.31;102732.41;15742542;28;20090;-49
2023/12/15 14:06:24;;;;;;;0.17;0.17;;;;;;;4.52;88.18;102743.81;15736114;28;20056;-50
2023/12/15 14:13:58;;;;;;;3.75;1.35;;;;;;;4.80;88.27;102745.13;15744035;28;20131;-47
2023/12/15 14:21:32;;;;;;;0.93;0.93;;;;;;;4.69;87.48;102763.75;15739045;28;20040;-48
2023/12/15 14:29:06;;;;;;;0.10;0.10;;;;;;;4.77;88.21;102753.34;15738969;28;20272;-50
2023/12/15 14:36:41;;;;;;;0.68;0.68;;;;;;;4.91;86.96;102762.88;15739341;28;20033;-47
2023/12/15 14:44:15;;;;;;;0.45;0.30;;;;;;;5.61;84.42;102753.59;15741337;28;20055;-49
2023/12/15 14:51:50;;;;;;;0.73;0.68;;;;;;;5.33;85.00;102744.38;15735356;28;20048;-48
2023/12/15 14:59:25;;;;;;;1.35;1.20;;;;;;;5.20;85.27;102749.03;15723682;28;20045;-52
2023/12/15 15:07:00;;;;;;;0.60;0.52;;;;;;;5.60;84.34;102747.41;15727067;28;20041;-53
2023/12/15 15:14:33;;;;;;;2.58;2.17;;;;;;;5.80;83.07;102767.06;15730064;28;20715;-52
2023/12/15 15:22:08;;;;;;;0.20;0.20;;;;;;;4.92;86.39;102772.53;15728134;28;20496;-51
2023/12/15 15:29:43;;;;;;;1.75;1.38;;;;;;;5.32;85.54;102772.84;15736602;28;20075;-53
2023/12/15 15:37:19;;;;;;;0.77;0.77;;;;;;;5.57;85.22;102782.28;15734709;28;20028;-52
2023/12/15 15:44:54;;;;;;;2.33;1.42;;;;;;;5.48;84.61;102782.22;15733153;28;20053;-51
2023/12/15 15:52:29;;;;;;;0.10;0.10;;;;;;;5.43;84.35;102795.91;15718185;28;20539;-51
2023/12/15 16:00:04;;;;;;;1.15;0.77;;;;;;;5.98;82.48;102782.50;15726645;28;20067;-53
2023/12/15 16:07:46;;;;;;;0.30;0.30;;;;;;;5.82;82.95;102793.56;15724730;28;20049;-51
2023/12/15 16:15:20;;;;;;;0.63;0.63;;;;;;;5.94;82.99;102792.56;15729222;28;20068;-52
2023/12/15 16:22:54;;;;;;;0.57;0.57;;;;;;;5.84;84.50;102804.97;15725001;28;20048;-51
2023/12/15 16:30:27;;;;;;;1.55;0.85;;;;;;;5.62;84.37;102820.06;15722213;28;20366;-51
2023/12/15 16:38:04;;;;;;;0.82;0.82;;;;;;;5.63;83.52;102824.41;15723359;28;20048;-52
2023/12/15 16:45:38;;;;;;;1.33;1.13;;;;;;;5.70;84.08;102832.75;15724007;28;20558;-50
2023/12/15 16:53:12;;;;;;;;;;;;;;;5.92;84.02;102836.31;15725848;28;20052;-52
2023/12/15 17:00:45;;;;;;;0.08;0.08;;;;;;;6.25;82.66;102848.63;15723605;28;19932;-50
2023/12/15 17:08:20;;;;;;;2.25;2.05;;;;;;;5.94;83.27;102859.22;15722239;28;20052;-50
2023/12/15 17:15:53;;;;;;;0.50;0.50;;;;;;;5.97;83.84;102860.75;15732801;28;20504;-48
2023/12/15 17:23:28;;;;;;;0.32;0.32;;;;;;;6.18;82.98;102856.31;15732481;28;20072;-50
2023/12/15 17:31:01;;;;;;;0.00;0.00;;;;;;;6.06;84.05;102847.53;15732996;28;20048;-50
2023/12/15 17:38:36;;;;;;;0.43;0.43;;;;;;;5.79;83.68;102857.78;15733147;28;20078;-50
2023/12/15 17:46:09;;;;;;;1.17;1.10;;;;;;;5.70;84.10;102871.88;15735271;28;20044;-50
2023/12/15 17:53:44;;;;;;;0.47;0.47;;;;;;;5.72;85.41;102877.91;15743660;28;20045;-51
2023/12/15 18:01:18;;;;;;;1.25;0.80;;;;;;;6.23;83.59;102902.09;15742204;28;20048;-51
2023/12/15 18:08:52;;;;;;;;;;;;;;;6.26;82.74;102901.84;15747248;28;20387;-51
2023/12/15 18:16:26;;;;;;;0.70;0.70;;;;;;;6.26;83.56;102906.34;15741196;28;19928;-52
2023/12/15 18:24:01;;;;;;;7.32;2.95;;;;;;;6.50;83.15;102922.09;15738632;28;20428;-52
2023/12/15 18:31:34;;;;;;;1.60;1.02;;;;;;;6.15;86.09;102928.53;15743614;28;20516;-51
2023/12/15 18:39:10;;;;;;;1.52;1.42;;;;;;;6.33;84.95;102929.69;15741762;28;20052;-52
2023/12/15 18:46:44;;;;;;;0.82;0.70;;;;;;;6.27;85.42;102938.22;15741212;28;20044;-52
2023/12/15 18:54:18;;;;;;;0.40;0.40;;;;;;;6.23;85.67;102954.59;15742244;28;20052;-54
2023/12/15 19:01:51;;;;;;;0.28;0.28;;;;;;;6.05;86.37;102959.63;15739812;28;20501;-51
2023/12/15 19:09:26;;;;;;;0.20;0.20;;;;;;;6.13;87.15;102960.69;15742808;28;20058;-50
2023/12/15 19:17:00;;;;;;;5.65;0.95;;;;;;;6.16;86.31;102942.75;15738408;28;20409;-53
2023/12/15 19:24:34;;;;;;;;;;;;;;;6.20;86.35;102946.84;15737743;28;20041;-54
2023/12/15 19:32:08;;;;;;;1.90;1.60;;;;;;;6.08;86.87;102952.22;15737399;28;19925;-55
2023/12/15 19:39:42;;;;;;;;;;;;;;;6.09;86.46;102955.72;15737405;28;20795;-54
2023/12/15 19:47:17;;;;;;;0.70;0.65;;;;;;;6.23;86.42;102962.59;15737465;28;19966;-53
2023/12/15 19:54:51;;;;;;;;;;;;;;;6.07;87.11;102957.69;15738929;28;20140;-55
2023/12/15 20:02:25;;;;;;;0.55;0.17;;;;;;;6.26;87.17;102951.69;15733034;28;19921;-55
2023/12/15 20:10:01;;;;;;;0.65;0.65;;;;;;;6.23;88.27;102949.25;15741145;28;20047;-52
2023/12/15 20:17:34;;;;;;;0.88;0.80;;;;;;;6.63;86.09;102950.28;15734983;28;20040;-51
2023/12/15 20:25:09;;;;;;;0.80;0.63;;;;;;;6.95;84.40;102951.16;15731537;28;20535;-52
2023/12/15 20:32:43;;;;;;;0.80;0.73;;;;;;;6.34;86.56;102981.19;15731946;28;20081;-52
2023/12/15 20:40:21;;;;;;;2.97;2.45;;;;;;;6.50;86.35;102976.28;15732821;28;20140;-52
2023/12/15 20:47:54;;;;;;;0.20;0.20;;;;;;;6.45;86.60;102981.16;15737793;28;20098;-53
2023/12/15 20:55:29;;;;;;;;;;;;;;;6.37;85.77;102994.28;15745679;28;20048;-50
2023/12/15 21:03:02;;;;;;;3.78;1.27;;;;;;;6.56;87.10;103010.47;15747106;28;19920;-55
2023/12/15 21:10:41;;;;;;;1.75;1.55;;;;;;;6.13;87.21;103003.34;15746009;28;20135;-52
2023/12/15 21:18:15;;;;;;;0.88;0.73;;;;;;;6.45;86.25;103001.66;15743840;28;20253;-53
2023/12/15 21:25:50;;;;;;;0.00;0.00;;;;;;;6.00;87.78;103007.97;15740568;28;20045;-51
2023/12/15 21:33:24;;;;;;;2.35;0.57;;;;;;;6.25;87.69;102998.84;15743602;28;20052;-50
2023/12/15 21:40:59;;;;;;;0.32;0.32;;;;;;;6.19;87.52;102999.31;15744280;28;20433;-50
2023/12/15 21:48:32;;;;;;;8.60;2.80;;;;;;;6.16;87.94;102974.75;15744093;28;20082;-51
2023/12/15 21:56:09;;;;;;;0.30;0.30;;;;;;;5.64;89.87;102977.09;15738825;28;20573;-54
2023/12/15 22:03:51;;;;;;;0.47;0.47;;;;;;;5.99;87.70;103005.44;15739517;28;20036;-51
2023/12/15 22:11:27;;;;;;;0.47;0.47;;;;;;;6.00;88.26;103031.97;15743609;28;20048;-50
2023/12/15 22:19:00;;;;;;;0.10;0.10;;;;;;;6.27;87.94;103044.88;15741079;28;20488;-52
2023/12/15 22:26:35;;;;;;;0.20;0.17;;;;;;;6.07;88.66;103048.34;15738769;28;20493;-52
2023/12/15 22:34:10;;;;;;;0.00;0.00;;;;;;;5.99;89.54;103032.09;15735459;28;20435;-47
2023/12/15 22:41:46;;;;;;;0.00;0.00;;;;;;;6.27;88.02;103026.22;15734816;28;20032;-47
2023/12/15 22:49:19;;;;;;;1.42;0.90;;;;;;;5.94;89.41;103037.81;15736481;28;20049;-52
2023/12/15 22:56:54;;;;;;;0.03;0.03;;;;;;;5.99;89.04;103014.28;15735866;28;20056;-51
2023/12/15 23:04:28;;;;;;;0.08;0.08;;;;;;;6.14;88.65;103021.03;15735131;28;20456;-49
2023/12/15 23:12:02;;;;;;;1.45;0.50;;;;;;;5.93;89.25;103028.13;15734100;28;20134;-50
2023/12/15 23:19:37;;;;;;;0.68;0.17;;;;;;;6.03;88.63;103028.22;15735112;28;20497;-46
2023/12/15 23:27:11;;;;;;;0.73;0.68;;;;;;;6.23;88.11;103032.78;15732181;28;20469;-47
2023/12/15 23:34:45;;;;;;;0.00;0.00;;;;;;;6.07;87.68;103027.84;15733061;28;20097;-48
2023/12/15 23:42:20;;;;;;;0.32;0.32;;;;;;;6.18;87.47;103034.13;15731482;28;20052;-52
2023/12/15 23:49:55;;;;;;;7.50;1.75;;;;;;;6.67;87.19;103035.41;15729313;28;20102;-53
2023/12/15 23:57:30;;;;;;;0.80;0.77;;;;;;;6.28;86.80;103057.25;15727678;28;20372;-51
